createdAt,value
2022-12-31T00:00:38.731Z,2.88
2022-12-31T00:03:08.787Z,1.92
2022-12-31T00:05:37.186Z,3.35
2022-12-31T00:08:04.579Z,3.83
2022-12-31T00:10:34.245Z,2.78
2022-12-31T00:13:01.506Z,2.33
2022-12-31T00:15:28.947Z,1.90
2022-12-31T00:17:56.290Z,2.22
2022-12-31T00:20:23.646Z,4.53
2022-12-31T00:22:50.939Z,4.00
2022-12-31T00:25:18.348Z,3.35
2022-12-31T00:27:45.538Z,4.00
2022-12-31T00:30:13.806Z,2.28
2022-12-31T00:32:41.097Z,2.63
2022-12-31T00:35:08.985Z,3.70
2022-12-31T00:37:36.381Z,2.65
2022-12-31T00:40:05.333Z,3.20
2022-12-31T00:42:32.531Z,4.80
2022-12-31T00:44:59.679Z,3.22
2022-12-31T00:47:26.972Z,3.08
2022-12-31T00:49:54.379Z,2.50
2022-12-31T00:52:21.802Z,2.80
2022-12-31T00:54:49.001Z,7.20
2022-12-31T00:57:16.279Z,2.78
2022-12-31T00:59:43.515Z,5.20
2022-12-31T01:02:10.935Z,2.40
2022-12-31T01:04:38.235Z,2.40
2022-12-31T01:07:05.471Z,2.53
2022-12-31T01:09:32.687Z,3.72
2022-12-31T01:11:59.919Z,3.72
2022-12-31T01:14:27.145Z,3.30
2022-12-31T01:16:54.495Z,3.55
2022-12-31T01:19:29.310Z,5.68
2022-12-31T01:21:57.949Z,4.15
2022-12-31T01:24:25.488Z,9.38
2022-12-31T01:26:52.750Z,3.28
2022-12-31T01:29:20.094Z,3.72
2022-12-31T01:31:47.494Z,4.95
2022-12-31T01:34:14.769Z,4.55
2022-12-31T01:36:42.012Z,4.13
2022-12-31T01:39:10.957Z,5.47
2022-12-31T01:41:45.173Z,3.55
2022-12-31T01:44:12.392Z,4.28
2022-12-31T01:46:43.577Z,3.42
2022-12-31T01:49:49.816Z,4.78
2022-12-31T01:52:32.691Z,2.78
2022-12-31T01:55:16.302Z,5.10
2022-12-31T01:57:46.740Z,3.92
2022-12-31T02:00:16.229Z,3.63
2022-12-31T02:02:44.749Z,4.32
2022-12-31T02:05:29.699Z,4.68
2022-12-31T02:07:57.554Z,3.40
2022-12-31T02:10:24.846Z,3.05
2022-12-31T02:12:52.831Z,4.82
2022-12-31T02:15:34.419Z,4.45
2022-12-31T02:18:27.341Z,3.05
2022-12-31T02:21:22.285Z,3.25
2022-12-31T02:24:26.588Z,4.63
2022-12-31T02:27:08.876Z,2.83
2022-12-31T02:30:08.787Z,3.67
2022-12-31T02:32:54.237Z,3.80
2022-12-31T02:35:34.849Z,3.97
2022-12-31T02:38:33.960Z,3.65
2022-12-31T02:41:01.951Z,3.10
2022-12-31T02:43:29.389Z,4.63
2022-12-31T02:46:11.272Z,4.20
2022-12-31T02:49:03.551Z,2.70
2022-12-31T02:52:00.886Z,5.05
2022-12-31T02:54:42.309Z,4.55
2022-12-31T02:57:27.776Z,3.28
2022-12-31T03:00:29.906Z,3.15
2022-12-31T03:02:59.960Z,3.60
2022-12-31T03:05:33.711Z,2.75
2022-12-31T03:08:01.051Z,3.13
2022-12-31T03:10:28.358Z,3.28
2022-12-31T03:12:55.710Z,3.47
2022-12-31T03:15:26.552Z,1.98
2022-12-31T03:21:07.734Z,2.83
2022-12-31T03:23:39.235Z,3.85
2022-12-31T03:26:10.822Z,4.18
2022-12-31T03:28:41.447Z,2.78
2022-12-31T03:31:09.383Z,3.67
2022-12-31T03:33:41.105Z,3.45
2022-12-31T03:36:13.425Z,3.15
2022-12-31T03:38:41.203Z,4.90
2022-12-31T03:41:11.621Z,3.28
2022-12-31T03:43:38.946Z,2.83
2022-12-31T03:46:06.671Z,2.67
2022-12-31T03:48:35.012Z,3.97
2022-12-31T03:51:05.419Z,3.78
2022-12-31T03:53:34.829Z,5.85
2022-12-31T03:56:02.034Z,2.65
2022-12-31T03:58:29.466Z,3.13
2022-12-31T04:00:57.019Z,4.10
2022-12-31T04:03:24.450Z,3.75
2022-12-31T04:05:55.784Z,3.67
2022-12-31T04:08:24.069Z,3.80
2022-12-31T04:10:51.395Z,4.20
2022-12-31T04:13:18.601Z,2.80
2022-12-31T04:15:45.849Z,4.03
2022-12-31T04:18:13.373Z,2.35
2022-12-31T04:20:40.616Z,2.15
2022-12-31T04:23:07.935Z,3.53
2022-12-31T04:25:35.194Z,2.40
2022-12-31T04:28:02.388Z,3.05
2022-12-31T04:30:29.609Z,2.85
2022-12-31T04:32:56.812Z,2.60
2022-12-31T04:35:24.055Z,2.00
2022-12-31T04:37:51.418Z,2.42
2022-12-31T04:40:18.731Z,3.33
2022-12-31T04:42:45.941Z,2.65
2022-12-31T04:45:13.219Z,3.05
2022-12-31T04:47:40.480Z,3.55
2022-12-31T04:50:08.363Z,2.28
2022-12-31T04:52:42.494Z,1.58
2022-12-31T04:55:10.468Z,5.28
2022-12-31T04:57:37.791Z,1.92
2022-12-31T05:00:06.290Z,5.80
2022-12-31T05:02:33.785Z,2.33
2022-12-31T05:05:01.056Z,2.55
2022-12-31T05:07:28.267Z,1.63
2022-12-31T05:09:55.561Z,5.13
2022-12-31T05:12:22.779Z,7.43
2022-12-31T05:14:49.979Z,2.95
2022-12-31T05:17:17.175Z,2.35
2022-12-31T05:19:44.381Z,2.45
2022-12-31T05:22:30.086Z,1.63
2022-12-31T05:25:01.234Z,1.70
2022-12-31T05:27:31.405Z,1.20
2022-12-31T05:29:59.646Z,2.25
2022-12-31T05:32:27.165Z,2.28
2022-12-31T05:34:54.398Z,3.53
2022-12-31T05:37:21.534Z,2.65
2022-12-31T05:39:48.849Z,3.55
2022-12-31T05:42:16.160Z,1.48
2022-12-31T05:44:43.553Z,2.15
2022-12-31T05:47:10.944Z,1.08
2022-12-31T05:49:38.206Z,2.35
2022-12-31T05:52:06.891Z,1.15
2022-12-31T05:54:34.664Z,1.48
2022-12-31T05:57:02.246Z,1.33
2022-12-31T05:59:29.716Z,0.77
2022-12-31T06:01:57.260Z,1.10
2022-12-31T06:04:24.739Z,0.88
2022-12-31T06:06:52.499Z,0.70
2022-12-31T06:09:19.959Z,0.60
2022-12-31T06:11:47.592Z,1.00
2022-12-31T06:14:15.083Z,0.75
2022-12-31T06:16:43.387Z,0.88
2022-12-31T06:19:10.740Z,0.98
2022-12-31T06:21:37.931Z,0.70
2022-12-31T06:24:05.815Z,0.30
2022-12-31T06:26:33.131Z,0.70
2022-12-31T06:29:00.428Z,1.30
2022-12-31T06:31:27.674Z,0.60
2022-12-31T06:33:55.276Z,1.70
2022-12-31T06:36:22.676Z,1.92
2022-12-31T06:38:49.954Z,0.77
2022-12-31T06:41:18.724Z,1.65
2022-12-31T06:43:46.585Z,1.80
2022-12-31T06:46:17.740Z,1.50
2022-12-31T06:48:45.839Z,1.02
2022-12-31T06:51:17.847Z,2.97
2022-12-31T06:53:50.435Z,1.77
2022-12-31T06:56:33.953Z,1.27
2022-12-31T06:59:03.257Z,1.27
2022-12-31T07:02:18.646Z,9.18
2022-12-31T07:04:58.182Z,1.20
2022-12-31T07:07:54.278Z,1.08
2022-12-31T07:10:39.506Z,1.70
2022-12-31T07:13:56.823Z,2.97
2022-12-31T07:16:41.721Z,1.00
2022-12-31T07:19:45.203Z,2.50
2022-12-31T07:22:16.300Z,2.08
2022-12-31T07:24:45.000Z,1.90
2022-12-31T07:27:21.994Z,1.75
2022-12-31T07:30:00.095Z,2.97
2022-12-31T07:33:11.962Z,1.65
2022-12-31T07:36:06.803Z,2.30
2022-12-31T07:38:41.052Z,2.20
2022-12-31T07:41:26.716Z,3.03
2022-12-31T07:44:12.391Z,2.47
2022-12-31T07:47:03.828Z,2.13
2022-12-31T07:49:33.819Z,1.88
2022-12-31T07:52:02.762Z,2.35
2022-12-31T07:54:30.065Z,5.45
2022-12-31T07:56:58.294Z,2.75
2022-12-31T07:59:25.376Z,2.33
2022-12-31T08:02:01.946Z,3.10
2022-12-31T08:04:34.800Z,2.33
2022-12-31T08:07:30.977Z,2.10
2022-12-31T08:10:18.512Z,1.92
2022-12-31T08:12:49.631Z,5.00
2022-12-31T08:15:20.043Z,5.18
2022-12-31T08:17:48.713Z,2.13
2022-12-31T08:20:17.537Z,3.45
2022-12-31T08:23:20.369Z,2.42
2022-12-31T08:26:00.380Z,2.30
2022-12-31T08:29:25.243Z,0.80
2022-12-31T08:32:20.961Z,0.65
2022-12-31T08:35:13.107Z,1.25
2022-12-31T08:37:57.996Z,1.30
2022-12-31T08:40:55.560Z,1.10
2022-12-31T08:43:33.390Z,0.77
2022-12-31T08:46:01.680Z,2.47
2022-12-31T08:48:40.533Z,2.83
2022-12-31T08:51:18.902Z,0.85
2022-12-31T08:53:48.368Z,1.23
2022-12-31T08:56:40.298Z,0.63
2022-12-31T08:59:26.780Z,1.33
2022-12-31T09:02:48.387Z,5.68
2022-12-31T09:05:26.197Z,0.63
2022-12-31T09:08:05.095Z,1.00
2022-12-31T09:10:59.880Z,0.50
2022-12-31T09:14:10.365Z,0.52
2022-12-31T09:17:02.631Z,2.85
2022-12-31T09:19:29.975Z,0.52
2022-12-31T09:21:57.550Z,1.15
2022-12-31T09:24:25.284Z,0.98
2022-12-31T09:27:14.390Z,0.65
2022-12-31T09:30:04.111Z,0.40
2022-12-31T09:33:00.590Z,0.37
2022-12-31T09:35:46.687Z,0.77
2022-12-31T09:38:30.968Z,0.85
2022-12-31T09:41:17.204Z,1.05
2022-12-31T09:44:12.485Z,0.57
2022-12-31T09:47:26.205Z,1.55
2022-12-31T09:50:31.092Z,0.65
2022-12-31T09:53:16.826Z,0.73
2022-12-31T09:56:23.219Z,0.80
2022-12-31T09:59:20.754Z,0.52
2022-12-31T10:02:12.516Z,0.43
2022-12-31T10:05:24.626Z,1.08
2022-12-31T10:08:34.937Z,0.85
2022-12-31T10:11:57.862Z,1.73
2022-12-31T10:15:00.268Z,1.05
2022-12-31T10:17:36.499Z,1.00
2022-12-31T10:20:20.181Z,0.45
2022-12-31T10:23:27.332Z,0.32
2022-12-31T10:26:37.294Z,0.50
2022-12-31T10:29:28.013Z,0.40
2022-12-31T10:32:40.654Z,0.43
2022-12-31T10:35:31.681Z,0.50
2022-12-31T10:38:37.485Z,0.85
2022-12-31T10:41:41.904Z,0.50
2022-12-31T10:45:12.598Z,0.63
2022-12-31T10:48:00.571Z,0.20
2022-12-31T10:50:54.860Z,0.38
2022-12-31T10:54:07.563Z,0.40
2022-12-31T10:57:17.807Z,0.65
2022-12-31T11:00:12.089Z,0.63
2022-12-31T11:03:00.806Z,0.57
2022-12-31T11:06:15.343Z,1.17
2022-12-31T11:09:15.431Z,1.05
2022-12-31T11:11:48.109Z,0.77
2022-12-31T11:14:16.283Z,0.90
2022-12-31T11:17:36.550Z,1.23
2022-12-31T11:20:29.831Z,0.65
2022-12-31T11:23:18.804Z,0.98
2022-12-31T11:26:17.191Z,1.33
2022-12-31T11:29:04.442Z,1.13
2022-12-31T11:31:58.336Z,0.50
2022-12-31T11:34:50.128Z,0.85
2022-12-31T11:37:40.098Z,1.33
2022-12-31T11:40:27.698Z,2.83
2022-12-31T11:43:21.716Z,2.28
2022-12-31T11:46:16.539Z,0.90
2022-12-31T11:49:03.403Z,1.98
2022-12-31T11:52:21.439Z,1.08
2022-12-31T11:55:32.973Z,0.73
2022-12-31T11:58:16.508Z,1.25
2022-12-31T12:01:01.000Z,5.63
2022-12-31T12:03:28.735Z,2.00
2022-12-31T12:05:58.337Z,3.38
2022-12-31T12:08:30.694Z,1.13
2022-12-31T12:11:08.015Z,1.75
2022-12-31T12:13:35.445Z,3.97
2022-12-31T12:16:07.409Z,1.52
2022-12-31T12:18:47.236Z,1.67
2022-12-31T12:21:25.268Z,0.80
2022-12-31T12:24:05.533Z,1.38
2022-12-31T12:26:43.271Z,0.95
2022-12-31T12:29:22.872Z,0.52
2022-12-31T12:32:02.615Z,1.38
2022-12-31T12:34:34.929Z,1.65
2022-12-31T12:37:03.563Z,0.95
2022-12-31T12:39:34.048Z,0.80
2022-12-31T12:42:14.996Z,1.27
2022-12-31T12:44:42.833Z,1.20
2022-12-31T12:47:17.471Z,2.83
2022-12-31T12:49:54.189Z,1.23
2022-12-31T12:52:59.170Z,2.70
2022-12-31T12:56:19.089Z,1.83
2022-12-31T12:59:02.841Z,1.73
2022-12-31T13:02:00.615Z,2.92
2022-12-31T13:04:55.563Z,3.25
2022-12-31T13:07:44.341Z,1.45
2022-12-31T13:10:52.528Z,2.80
2022-12-31T13:13:56.452Z,0.98
2022-12-31T13:16:38.996Z,0.82
2022-12-31T13:19:39.887Z,1.55
2022-12-31T13:22:54.251Z,1.95
2022-12-31T13:25:52.063Z,0.68
2022-12-31T13:28:21.235Z,0.60
2022-12-31T13:30:56.861Z,3.40
2022-12-31T13:33:34.197Z,1.92
2022-12-31T13:36:09.520Z,1.40
2022-12-31T13:38:44.794Z,1.90
2022-12-31T13:41:48.403Z,2.60
2022-12-31T13:44:54.585Z,1.63
2022-12-31T13:47:35.815Z,1.50
2022-12-31T13:50:29.671Z,1.25
2022-12-31T13:53:12.892Z,2.53
2022-12-31T13:55:56.862Z,4.10
2022-12-31T13:58:48.855Z,2.00
2022-12-31T14:01:37.908Z,3.13
2022-12-31T14:04:47.155Z,1.90
2022-12-31T14:07:57.836Z,2.05
2022-12-31T14:13:40.407Z,3.38
2022-12-31T14:16:35.356Z,2.08
2022-12-31T14:19:50.383Z,1.27
2022-12-31T14:22:30.691Z,1.92
2022-12-31T14:25:00.953Z,2.75
2022-12-31T14:27:37.284Z,3.30
2022-12-31T14:30:19.651Z,1.67
2022-12-31T14:33:23.291Z,3.35
2022-12-31T14:36:22.584Z,1.95
2022-12-31T14:39:36.684Z,4.18
2022-12-31T14:42:55.861Z,2.08
2022-12-31T14:46:10.923Z,1.45
2022-12-31T14:49:00.596Z,4.55
2022-12-31T14:51:29.910Z,1.75
2022-12-31T14:53:59.156Z,2.60
2022-12-31T14:56:44.635Z,1.00
2022-12-31T14:59:34.453Z,1.50
2022-12-31T15:02:32.604Z,2.05
2022-12-31T15:05:29.470Z,1.75
2022-12-31T15:08:44.582Z,1.92
2022-12-31T15:11:37.453Z,4.35
2022-12-31T15:14:37.251Z,1.80
2022-12-31T15:17:32.498Z,4.15
2022-12-31T15:20:51.639Z,6.90
2022-12-31T15:23:32.681Z,5.38
2022-12-31T15:26:02.249Z,5.60
2022-12-31T15:28:39.811Z,5.43
2022-12-31T15:31:27.864Z,4.22
2022-12-31T15:33:57.804Z,5.43
2022-12-31T15:36:50.348Z,6.90
2022-12-31T15:39:18.978Z,6.32
2022-12-31T15:42:27.587Z,10.60
2022-12-31T15:44:50.287Z,6.90
2022-12-31T15:47:46.098Z,6.75
2022-12-31T15:50:21.062Z,6.80
2022-12-31T15:52:58.585Z,5.50
2022-12-31T15:55:41.566Z,3.75
2022-12-31T15:58:16.970Z,2.60
2022-12-31T16:01:13.967Z,2.78
2022-12-31T16:03:58.612Z,2.13
2022-12-31T16:06:30.467Z,2.25
2022-12-31T16:08:58.440Z,1.50
2022-12-31T16:11:30.343Z,3.45
2022-12-31T16:14:00.020Z,1.75
2022-12-31T16:16:32.502Z,0.63
2022-12-31T16:19:01.508Z,1.00
2022-12-31T16:21:38.610Z,1.48
2022-12-31T16:24:32.495Z,2.15
2022-12-31T16:27:22.607Z,1.40
2022-12-31T16:30:07.404Z,0.65
2022-12-31T16:32:39.145Z,1.80
2022-12-31T16:35:25.676Z,2.03
2022-12-31T16:38:08.019Z,1.77
2022-12-31T16:40:35.448Z,1.33
2022-12-31T16:43:02.793Z,1.55
2022-12-31T16:45:36.240Z,2.38
2022-12-31T16:48:17.278Z,4.50
2022-12-31T16:50:56.112Z,3.20
2022-12-31T16:53:27.738Z,0.68
2022-12-31T16:56:05.034Z,1.58
2022-12-31T16:58:40.852Z,1.58
2022-12-31T17:01:11.775Z,1.42
2022-12-31T17:03:44.335Z,1.90
2022-12-31T17:06:20.246Z,1.55
2022-12-31T17:08:57.964Z,3.75
2022-12-31T17:11:30.843Z,1.63
2022-12-31T17:14:14.525Z,3.83
2022-12-31T17:17:03.942Z,2.42
2022-12-31T17:19:46.003Z,1.33
2022-12-31T17:22:42.751Z,1.75
2022-12-31T17:25:32.747Z,1.00
2022-12-31T17:28:23.348Z,1.50
2022-12-31T17:30:51.013Z,1.27
2022-12-31T17:33:21.351Z,2.17
2022-12-31T17:35:55.293Z,2.13
2022-12-31T17:38:22.551Z,0.65
2022-12-31T17:41:05.946Z,0.93
2022-12-31T17:43:37.983Z,0.90
2022-12-31T17:46:17.039Z,1.88
2022-12-31T17:48:50.046Z,1.70
2022-12-31T17:51:17.485Z,1.35
2022-12-31T17:53:52.018Z,1.45
2022-12-31T17:56:20.749Z,2.30
2022-12-31T17:58:52.168Z,1.98
2022-12-31T18:01:23.007Z,1.17
2022-12-31T18:03:51.355Z,0.85
2022-12-31T18:06:21.833Z,4.10
2022-12-31T18:11:23.005Z,2.08
2022-12-31T18:13:50.731Z,1.35
2022-12-31T18:16:18.077Z,2.30
2022-12-31T18:18:45.815Z,2.22
2022-12-31T18:21:33.079Z,2.05
2022-12-31T18:26:34.801Z,3.30
2022-12-31T18:29:15.510Z,2.80
2022-12-31T18:31:47.924Z,2.67
2022-12-31T18:34:17.807Z,2.53
2022-12-31T18:36:45.842Z,1.58
2022-12-31T18:39:13.291Z,2.20
2022-12-31T18:41:51.462Z,1.75
2022-12-31T18:44:18.832Z,2.00
2022-12-31T18:46:46.176Z,2.55
2022-12-31T18:49:13.453Z,1.60
2022-12-31T18:51:40.857Z,5.07
2022-12-31T18:54:11.772Z,2.75
2022-12-31T18:56:44.807Z,1.52
2022-12-31T18:59:14.536Z,4.00
2022-12-31T19:01:42.069Z,6.55
2022-12-31T19:04:27.188Z,6.72
2022-12-31T19:06:56.577Z,6.13
2022-12-31T19:09:44.604Z,6.38
2022-12-31T19:12:15.250Z,5.70
2022-12-31T19:14:42.995Z,7.85
2022-12-31T19:19:36.420Z,5.05
2022-12-31T19:22:03.735Z,6.78
2022-12-31T19:24:31.029Z,7.18
2022-12-31T19:26:58.274Z,7.78
2022-12-31T19:29:28.382Z,8.90
2022-12-31T19:31:55.757Z,7.65
2022-12-31T19:34:23.139Z,7.03
2022-12-31T19:36:50.511Z,7.50
2022-12-31T19:39:20.630Z,6.72
2022-12-31T19:41:54.643Z,7.55
2022-12-31T19:44:25.726Z,6.53
2022-12-31T19:46:52.947Z,7.88
2022-12-31T19:49:20.170Z,7.22
2022-12-31T19:51:47.599Z,6.25
2022-12-31T19:54:14.902Z,7.68
2022-12-31T19:56:42.553Z,8.20
2022-12-31T19:59:11.058Z,7.75
2022-12-31T20:01:38.842Z,8.02
2022-12-31T20:04:06.658Z,9.70
2022-12-31T20:06:34.039Z,11.15
2022-12-31T20:09:03.439Z,9.55
2022-12-31T20:11:30.863Z,8.23
2022-12-31T20:13:58.447Z,9.45
2022-12-31T20:16:27.062Z,8.63
2022-12-31T20:18:54.557Z,9.10
2022-12-31T20:21:26.362Z,9.50
2022-12-31T20:23:55.216Z,13.35
2022-12-31T20:26:24.736Z,9.63
2022-12-31T20:28:53.558Z,10.23
2022-12-31T20:31:24.836Z,14.02
2022-12-31T20:33:54.344Z,11.98
2022-12-31T20:36:22.231Z,9.57
2022-12-31T20:38:50.353Z,9.52
2022-12-31T20:41:21.079Z,7.90
2022-12-31T20:46:24.473Z,8.57
2022-12-31T20:48:54.788Z,10.55
2022-12-31T20:51:23.998Z,13.10
2022-12-31T20:53:58.692Z,8.80
2022-12-31T20:56:29.907Z,8.88
2022-12-31T20:58:57.823Z,11.25
2022-12-31T21:01:32.204Z,8.07
2022-12-31T21:04:13.498Z,10.13
2022-12-31T21:06:41.015Z,7.70
2022-12-31T21:09:08.837Z,10.35
2022-12-31T21:11:54.915Z,9.60
2022-12-31T21:14:22.443Z,8.63
2022-12-31T21:16:50.024Z,10.18
2022-12-31T21:19:17.365Z,10.15
2022-12-31T21:21:44.748Z,9.60
2022-12-31T21:24:12.227Z,9.00
2022-12-31T21:26:39.546Z,11.60
2022-12-31T21:29:07.146Z,11.00
2022-12-31T21:31:34.500Z,9.70
2022-12-31T21:34:01.907Z,12.82
2022-12-31T21:36:29.250Z,10.48
2022-12-31T21:38:56.668Z,9.93
2022-12-31T21:41:42.689Z,11.13
2022-12-31T21:44:10.075Z,8.23
2022-12-31T21:46:37.560Z,12.20
2022-12-31T21:49:04.990Z,8.50
2022-12-31T21:51:52.576Z,6.63
2022-12-31T21:54:39.981Z,9.48
2022-12-31T21:57:10.310Z,9.43
2022-12-31T22:00:24.148Z,8.13
2022-12-31T22:03:10.237Z,8.88
2022-12-31T22:05:38.382Z,8.00
2022-12-31T22:08:05.917Z,9.40
2022-12-31T22:10:37.075Z,8.23
2022-12-31T22:13:04.657Z,8.25
2022-12-31T22:18:17.993Z,10.00
2022-12-31T22:20:45.684Z,8.00
2022-12-31T22:23:13.227Z,11.40
2022-12-31T22:25:40.768Z,8.90
2022-12-31T22:30:55.923Z,9.10
2022-12-31T22:33:23.242Z,9.52
2022-12-31T22:36:07.164Z,7.47
2022-12-31T22:38:35.115Z,7.93
2022-12-31T22:41:12.929Z,9.65
2022-12-31T22:43:44.293Z,8.20
2022-12-31T22:46:15.790Z,7.75
2022-12-31T22:48:43.377Z,6.68
2022-12-31T22:51:12.390Z,5.60
2022-12-31T22:53:41.403Z,8.10
2022-12-31T22:56:10.383Z,7.53
2022-12-31T22:58:38.056Z,6.55
2022-12-31T23:01:17.196Z,10.60
2022-12-31T23:03:46.016Z,6.57
2022-12-31T23:06:13.428Z,6.93
2022-12-31T23:08:40.984Z,7.45
2022-12-31T23:11:11.221Z,6.03
2022-12-31T23:14:01.816Z,6.47
2022-12-31T23:16:48.858Z,7.13
2022-12-31T23:19:35.173Z,16.55
2022-12-31T23:22:21.113Z,14.27
2022-12-31T23:24:48.491Z,20.23
2022-12-31T23:27:15.877Z,21.98
2022-12-31T23:29:47.278Z,19.73
2022-12-31T23:32:16.459Z,15.90
2022-12-31T23:34:45.537Z,15.35
2022-12-31T23:37:16.216Z,18.20
2022-12-31T23:42:10.837Z,11.60
2022-12-31T23:44:38.109Z,15.82
2022-12-31T23:47:05.566Z,20.65
2022-12-31T23:49:32.802Z,12.82
2022-12-31T23:52:00.088Z,14.32
2022-12-31T23:54:28.170Z,16.08
2022-12-31T23:56:55.541Z,14.35
2022-12-31T23:59:22.866Z,14.70
